createdAt,value
2019-05-12T00:00:39.583Z,94.80
2019-05-12T00:03:08.913Z,95.20
2019-05-12T00:05:38.435Z,95.10
2019-05-12T00:08:08.462Z,94.60
2019-05-12T00:10:38.704Z,95.00
2019-05-12T00:13:08.611Z,94.30
2019-05-12T00:15:38.610Z,94.80
2019-05-12T00:18:09.098Z,95.30
2019-05-12T00:20:38.903Z,95.20
2019-05-12T00:23:23.186Z,94.00
2019-05-12T00:25:39.341Z,94.70
2019-05-12T00:28:08.671Z,94.70
2019-05-12T00:30:39.628Z,95.10
2019-05-12T00:33:09.592Z,94.10
2019-05-12T00:35:39.479Z,94.50
2019-05-12T00:38:09.375Z,94.80
2019-05-12T00:40:39.562Z,95.20
2019-05-12T00:43:09.978Z,94.30
2019-05-12T00:45:39.917Z,94.10
2019-05-12T00:48:09.735Z,94.60
2019-05-12T00:50:39.065Z,93.80
2019-05-12T00:53:09.311Z,93.90
2019-05-12T00:55:38.947Z,94.50
2019-05-12T00:58:08.982Z,94.70
2019-05-12T01:00:41.081Z,94.70
2019-05-12T01:03:09.829Z,94.70
2019-05-12T01:05:39.167Z,94.90
2019-05-12T01:08:09.474Z,94.10
2019-05-12T01:10:39.490Z,95.00
2019-05-12T01:13:09.124Z,94.60
2019-05-12T01:15:38.666Z,95.40
2019-05-12T01:18:09.835Z,95.00
2019-05-12T01:20:39.435Z,95.20
2019-05-12T01:23:09.105Z,94.20
2019-05-12T01:25:39.501Z,94.40
2019-05-12T01:28:09.560Z,95.20
2019-05-12T01:30:39.468Z,94.70
2019-05-12T01:33:09.138Z,94.30
2019-05-12T01:35:39.274Z,94.70
2019-05-12T01:38:08.697Z,94.40
2019-05-12T01:40:39.338Z,94.40
2019-05-12T01:43:09.160Z,95.40
2019-05-12T01:45:38.607Z,94.70
2019-05-12T01:48:09.190Z,95.00
2019-05-12T01:50:39.275Z,94.40
2019-05-12T01:53:08.875Z,94.30
2019-05-12T01:55:39.214Z,94.80
2019-05-12T01:58:09.132Z,94.10
2019-05-12T02:00:39.203Z,93.70
2019-05-12T02:03:09.578Z,94.30
2019-05-12T02:05:40.719Z,94.60
2019-05-12T02:08:11.668Z,94.60
2019-05-12T02:10:41.001Z,94.40
2019-05-12T02:13:10.316Z,94.10
2019-05-12T02:15:39.645Z,94.10
2019-05-12T02:18:09.373Z,94.30
2019-05-12T02:20:38.775Z,94.30
2019-05-12T02:23:08.990Z,94.70
2019-05-12T02:25:38.666Z,94.30
2019-05-12T02:28:09.403Z,93.80
2019-05-12T02:30:41.469Z,93.90
2019-05-12T02:33:10.022Z,94.20
2019-05-12T02:35:39.334Z,94.20
2019-05-12T02:38:08.655Z,94.90
2019-05-12T02:40:37.985Z,93.90
2019-05-12T02:43:07.300Z,93.80
2019-05-12T02:45:36.690Z,94.50
2019-05-12T02:48:06.176Z,94.30
2019-05-12T02:50:38.069Z,94.10
2019-05-12T02:53:07.933Z,93.90
2019-05-12T02:55:37.818Z,94.20
2019-05-12T02:58:07.212Z,94.30
2019-05-12T03:00:37.384Z,94.50
2019-05-12T03:03:09.533Z,93.90
2019-05-12T03:05:44.237Z,94.50
2019-05-12T03:08:15.275Z,94.70
2019-05-12T03:10:48.631Z,94.60
2019-05-12T03:13:17.941Z,94.80
2019-05-12T03:15:47.292Z,94.50
2019-05-12T03:18:16.654Z,94.40
2019-05-12T03:20:46.015Z,93.90
2019-05-12T03:23:18.950Z,94.00
2019-05-12T03:25:46.452Z,95.00
2019-05-12T03:28:16.157Z,94.50
2019-05-12T03:30:48.488Z,94.70
2019-05-12T03:33:19.424Z,95.30
2019-05-12T03:35:53.041Z,94.90
2019-05-12T03:38:18.893Z,94.70
2019-05-12T03:40:48.229Z,95.00
2019-05-12T03:43:17.537Z,94.00
2019-05-12T03:45:46.871Z,94.30
2019-05-12T03:48:18.343Z,94.90
2019-05-12T03:50:47.750Z,94.90
2019-05-12T03:53:17.889Z,94.90
2019-05-12T03:55:47.519Z,94.00
2019-05-12T03:58:16.978Z,94.40
2019-05-12T04:00:46.402Z,94.60
2019-05-12T04:03:15.815Z,95.10
2019-05-12T04:05:45.514Z,94.10
2019-05-12T04:08:16.040Z,94.10
2019-05-12T04:10:45.943Z,94.30
2019-05-12T04:13:15.661Z,93.90
2019-05-12T04:15:45.621Z,94.30
2019-05-12T04:18:16.204Z,93.10
2019-05-12T04:20:46.431Z,94.00
2019-05-12T04:23:15.975Z,94.30
2019-05-12T04:25:51.971Z,94.40
2019-05-12T04:28:16.370Z,94.00
2019-05-12T04:30:45.740Z,93.70
2019-05-12T04:33:15.862Z,93.30
2019-05-12T04:35:45.540Z,93.50
2019-05-12T04:38:15.405Z,93.50
2019-05-12T04:40:45.625Z,93.30
2019-05-12T04:43:15.427Z,93.10
2019-05-12T04:45:45.347Z,93.80
2019-05-12T04:48:18.174Z,93.30
2019-05-12T04:50:46.096Z,93.60
2019-05-12T04:53:15.415Z,93.80
2019-05-12T04:55:44.977Z,93.90
2019-05-12T04:58:15.756Z,93.20
2019-05-12T05:00:45.723Z,92.80
2019-05-12T05:03:15.017Z,93.30
2019-05-12T05:05:44.736Z,93.90
2019-05-12T05:08:19.310Z,93.80
2019-05-12T05:10:45.277Z,93.80
2019-05-12T05:13:15.215Z,93.50
2019-05-12T05:15:45.055Z,93.50
2019-05-12T05:18:14.403Z,94.00
2019-05-12T05:20:43.984Z,93.60
2019-05-12T05:23:14.113Z,93.20
2019-05-12T05:25:43.765Z,93.10
2019-05-12T05:28:14.607Z,93.30
2019-05-12T05:30:44.432Z,93.10
2019-05-12T05:33:14.521Z,93.30
2019-05-12T05:35:44.058Z,93.40
2019-05-12T05:38:19.136Z,92.70
2019-05-12T05:40:45.568Z,93.00
2019-05-12T05:43:18.432Z,92.80
2019-05-12T05:45:46.075Z,92.40
2019-05-12T05:48:15.406Z,92.40
2019-05-12T05:50:44.724Z,92.50
2019-05-12T05:53:19.394Z,92.70
2019-05-12T05:55:45.092Z,93.20
2019-05-12T05:58:15.404Z,93.20
2019-05-12T06:00:44.834Z,92.80
2019-05-12T06:03:22.785Z,93.50
2019-05-12T06:05:45.191Z,93.70
2019-05-12T06:08:20.272Z,93.20
2019-05-12T06:10:46.298Z,93.00
2019-05-12T06:13:15.630Z,92.50
2019-05-12T06:15:45.085Z,92.10
2019-05-12T06:18:14.419Z,92.20
2019-05-12T06:20:43.934Z,92.00
2019-05-12T06:23:14.747Z,92.10
2019-05-12T06:25:50.892Z,92.50
2019-05-12T06:28:15.391Z,92.80
2019-05-12T06:30:47.643Z,92.50
2019-05-12T06:33:15.765Z,91.80
2019-05-12T06:35:45.539Z,92.20
2019-05-12T06:38:15.002Z,92.00
2019-05-12T06:40:45.572Z,91.60
2019-05-12T06:43:15.053Z,91.80
2019-05-12T06:45:45.655Z,91.60
2019-05-12T06:48:19.357Z,91.30
2019-05-12T06:50:46.202Z,91.10
2019-05-12T06:53:20.048Z,91.90
2019-05-12T06:55:46.571Z,92.20
2019-05-12T06:58:26.371Z,91.80
2019-05-12T07:00:46.938Z,91.50
2019-05-12T07:03:19.376Z,91.50
2019-05-12T07:05:47.311Z,91.50
2019-05-12T07:08:20.087Z,90.90
2019-05-12T07:10:57.844Z,90.40
2019-05-12T07:13:29.257Z,91.00
2019-05-12T07:15:51.454Z,90.10
2019-05-12T07:18:24.336Z,90.20
2019-05-12T07:20:53.911Z,90.00
2019-05-12T07:23:25.799Z,89.90
2019-05-12T07:25:54.946Z,89.30
2019-05-12T07:28:24.438Z,89.90
2019-05-12T07:30:54.465Z,89.50
2019-05-12T07:33:24.219Z,89.00
2019-05-12T07:36:00.998Z,88.70
2019-05-12T07:38:26.830Z,88.90
2019-05-12T07:41:00.881Z,88.80
2019-05-12T07:43:29.834Z,88.20
2019-05-12T07:46:06.927Z,86.40
2019-05-12T07:48:33.243Z,85.40
2019-05-12T07:51:04.016Z,85.50
2019-05-12T07:53:33.841Z,86.00
2019-05-12T07:56:04.170Z,85.30
2019-05-12T07:58:33.556Z,85.80
2019-05-12T08:01:07.150Z,85.40
2019-05-12T08:03:34.538Z,85.90
2019-05-12T08:06:04.611Z,85.90
2019-05-12T08:08:34.151Z,84.30
2019-05-12T08:11:04.405Z,84.20
2019-05-12T08:13:37.875Z,85.00
2019-05-12T08:16:05.129Z,85.10
2019-05-12T08:18:36.969Z,85.40
2019-05-12T08:21:05.500Z,85.00
2019-05-12T08:23:37.785Z,83.80
2019-05-12T08:26:12.525Z,82.90
2019-05-12T08:28:40.379Z,82.60
2019-05-12T08:31:08.242Z,82.10
2019-05-12T08:33:37.629Z,82.90
2019-05-12T08:36:11.372Z,83.70
2019-05-12T08:38:38.073Z,82.60
2019-05-12T08:41:07.551Z,81.60
2019-05-12T08:43:40.686Z,81.80
2019-05-12T08:46:12.131Z,81.20
2019-05-12T08:48:38.983Z,80.90
2019-05-12T08:51:14.365Z,87.00
2019-05-12T08:53:39.957Z,80.20
2019-05-12T08:56:13.247Z,78.50
2019-05-12T08:58:48.231Z,79.00
2019-05-12T09:01:13.796Z,80.30
2019-05-12T09:03:44.281Z,81.50
2019-05-12T09:06:15.430Z,80.60
2019-05-12T09:08:49.233Z,80.00
2019-05-12T09:11:16.955Z,80.50
2019-05-12T09:13:46.668Z,79.60
2019-05-12T09:16:16.429Z,80.00
2019-05-12T09:18:46.263Z,79.10
2019-05-12T09:21:15.944Z,76.60
2019-05-12T09:23:48.065Z,75.70
2019-05-12T09:26:18.519Z,77.00
2019-05-12T09:28:50.570Z,76.90
2019-05-12T09:31:25.390Z,78.40
2019-05-12T09:33:51.079Z,80.00
2019-05-12T09:36:21.791Z,78.30
2019-05-12T09:38:55.847Z,77.90
2019-05-12T09:41:25.225Z,77.90
2019-05-12T09:43:56.084Z,78.10
2019-05-12T09:46:28.313Z,77.90
2019-05-12T09:48:56.543Z,77.30
2019-05-12T09:51:26.626Z,78.60
2019-05-12T09:53:55.962Z,76.00
2019-05-12T09:56:25.314Z,76.50
2019-05-12T09:59:01.451Z,76.70
2019-05-12T10:01:29.395Z,76.20
2019-05-12T10:03:56.796Z,76.20
2019-05-12T10:06:26.142Z,75.20
2019-05-12T10:08:55.450Z,75.90
2019-05-12T10:11:24.792Z,76.50
2019-05-12T10:13:54.377Z,75.90
2019-05-12T10:16:24.195Z,76.30
2019-05-12T10:18:53.528Z,75.80
2019-05-12T10:21:23.778Z,76.10
2019-05-12T10:24:00.144Z,75.00
2019-05-12T10:26:24.260Z,74.80
2019-05-12T10:28:58.249Z,74.40
2019-05-12T10:31:29.787Z,74.60
2019-05-12T10:33:58.345Z,74.10
2019-05-12T10:36:27.635Z,74.40
2019-05-12T10:38:56.959Z,72.60
2019-05-12T10:41:26.293Z,73.20
2019-05-12T10:43:57.749Z,73.90
2019-05-12T10:46:28.615Z,74.70
2019-05-12T10:48:57.721Z,73.70
2019-05-12T10:51:27.066Z,74.30
2019-05-12T10:54:05.572Z,75.30
2019-05-12T10:56:27.461Z,74.60
2019-05-12T10:58:56.808Z,74.50
2019-05-12T11:01:26.111Z,74.70
2019-05-12T11:03:55.448Z,73.80
2019-05-12T11:06:24.762Z,72.80
2019-05-12T11:08:54.282Z,73.40
2019-05-12T11:11:24.052Z,73.60
2019-05-12T11:13:53.901Z,75.90
2019-05-12T11:16:30.762Z,77.30
2019-05-12T11:18:54.359Z,78.10
2019-05-12T11:21:23.685Z,76.10
2019-05-12T11:23:54.454Z,74.30
2019-05-12T11:26:23.818Z,74.00
2019-05-12T11:28:53.335Z,69.70
2019-05-12T11:31:24.333Z,68.00
2019-05-12T11:33:54.213Z,67.90
2019-05-12T11:36:24.144Z,68.20
2019-05-12T11:38:53.599Z,68.50
2019-05-12T11:41:28.233Z,70.10
2019-05-12T11:43:54.031Z,67.80
2019-05-12T11:46:23.917Z,68.30
2019-05-12T11:48:53.902Z,68.40
2019-05-12T11:51:26.939Z,69.70
2019-05-12T11:53:54.391Z,70.40
2019-05-12T11:56:24.350Z,68.00
2019-05-12T11:58:54.308Z,67.10
2019-05-12T12:01:25.371Z,68.80
2019-05-12T12:03:54.821Z,69.80
2019-05-12T12:06:24.217Z,69.70
2019-05-12T12:08:53.824Z,66.00
2019-05-12T12:11:27.626Z,65.90
2019-05-12T12:13:54.268Z,65.60
2019-05-12T12:16:23.869Z,61.90
2019-05-12T12:19:02.359Z,59.10
2019-05-12T12:21:24.241Z,58.70
2019-05-12T12:23:53.624Z,58.40
2019-05-12T12:26:26.098Z,59.50
2019-05-12T12:28:56.261Z,62.30
2019-05-12T12:31:29.508Z,62.80
2019-05-12T12:33:56.641Z,63.10
2019-05-12T12:36:25.963Z,63.40
2019-05-12T12:38:55.300Z,62.40
2019-05-12T12:41:24.620Z,63.40
2019-05-12T12:43:54.164Z,65.90
2019-05-12T12:46:25.197Z,61.90
2019-05-12T12:48:54.533Z,57.70
2019-05-12T12:51:23.854Z,57.10
2019-05-12T12:53:54.102Z,58.90
2019-05-12T12:56:28.404Z,59.70
2019-05-12T12:58:55.396Z,57.10
2019-05-12T13:01:28.673Z,55.60
2019-05-12T13:03:59.498Z,55.30
2019-05-12T13:06:27.041Z,56.10
2019-05-12T13:08:56.388Z,56.30
2019-05-12T13:11:33.280Z,56.50
2019-05-12T13:13:56.787Z,57.90
2019-05-12T13:16:26.115Z,57.60
2019-05-12T13:18:55.459Z,57.10
2019-05-12T13:21:24.782Z,54.50
2019-05-12T13:23:54.125Z,54.50
2019-05-12T13:26:23.961Z,53.10
2019-05-12T13:28:55.079Z,51.70
2019-05-12T13:31:24.470Z,52.40
2019-05-12T13:33:54.802Z,50.70
2019-05-12T13:36:29.268Z,50.30
2019-05-12T13:38:55.435Z,50.50
2019-05-12T13:41:24.755Z,51.10
2019-05-12T13:43:58.039Z,50.10
2019-05-12T13:46:25.156Z,49.00
2019-05-12T13:48:56.111Z,45.70
2019-05-12T13:51:25.547Z,46.70
2019-05-12T13:53:54.858Z,45.80
2019-05-12T13:56:29.864Z,45.20
2019-05-12T13:58:55.240Z,45.30
2019-05-12T14:01:24.961Z,44.50
2019-05-12T14:03:54.375Z,42.80
2019-05-12T14:06:31.818Z,42.30
2019-05-12T14:08:54.771Z,46.10
2019-05-12T14:11:24.170Z,48.10
2019-05-12T14:13:53.451Z,47.80
2019-05-12T14:16:23.863Z,47.10
2019-05-12T14:18:57.110Z,46.50
2019-05-12T14:21:24.582Z,48.00
2019-05-12T14:23:53.868Z,45.90
2019-05-12T14:26:24.224Z,45.90
2019-05-12T14:28:53.597Z,44.30
2019-05-12T14:31:30.071Z,43.50
2019-05-12T14:33:54.122Z,44.20
2019-05-12T14:36:26.582Z,43.00
2019-05-12T14:38:54.478Z,43.50
2019-05-12T14:41:27.010Z,44.80
2019-05-12T14:44:01.553Z,42.90
2019-05-12T14:46:26.660Z,43.00
2019-05-12T14:48:55.981Z,44.20
2019-05-12T14:51:25.315Z,42.60
2019-05-12T14:53:59.087Z,41.10
2019-05-12T14:56:30.055Z,42.50
2019-05-12T14:59:03.623Z,41.80
2019-05-12T15:01:51.752Z,41.80
2019-05-12T15:04:13.317Z,42.80
2019-05-12T15:06:45.639Z,42.80
2019-05-12T15:09:21.767Z,41.60
2019-05-12T15:11:48.824Z,41.20
2019-05-12T15:14:18.154Z,39.20
2019-05-12T15:16:50.704Z,38.20
2019-05-12T15:19:29.808Z,39.10
2019-05-12T15:22:01.483Z,39.10
2019-05-12T15:24:29.668Z,39.30
2019-05-12T15:27:00.945Z,40.20
2019-05-12T15:29:30.241Z,40.40
2019-05-12T15:31:59.583Z,41.10
2019-05-12T15:34:28.900Z,40.90
2019-05-12T15:37:00.191Z,38.90
2019-05-12T15:39:29.282Z,40.20
2019-05-12T15:42:03.331Z,38.30
2019-05-12T15:44:36.761Z,37.30
2019-05-12T15:47:06.371Z,36.30
2019-05-12T15:49:35.687Z,37.40
2019-05-12T15:52:05.057Z,37.90
2019-05-12T15:54:36.248Z,37.90
2019-05-12T15:57:05.521Z,38.40
2019-05-12T15:59:34.802Z,37.60
2019-05-12T16:02:13.146Z,37.80
2019-05-12T16:04:42.621Z,36.40
2019-05-12T16:07:09.336Z,37.50
2019-05-12T16:09:38.669Z,38.10
2019-05-12T16:12:18.597Z,37.30
2019-05-12T16:14:41.071Z,37.50
2019-05-12T16:17:10.119Z,36.80
2019-05-12T16:19:39.434Z,37.00
2019-05-12T16:22:08.779Z,36.70
2019-05-12T16:24:38.104Z,36.40
2019-05-12T16:27:08.233Z,37.80
2019-05-12T16:29:38.999Z,37.40
2019-05-12T16:32:22.358Z,36.90
2019-05-12T16:34:44.971Z,37.00
2019-05-12T16:37:10.805Z,36.70
2019-05-12T16:39:46.613Z,36.50
2019-05-12T16:42:11.287Z,36.70
2019-05-12T16:44:40.590Z,37.00
2019-05-12T16:47:09.928Z,38.30
2019-05-12T16:49:39.244Z,38.80
2019-05-12T16:52:08.582Z,39.70
2019-05-12T16:54:37.897Z,39.70
2019-05-12T16:57:11.776Z,38.80
2019-05-12T16:59:38.273Z,38.40
2019-05-12T17:02:09.797Z,39.10
2019-05-12T17:04:40.562Z,39.60
2019-05-12T17:07:17.233Z,39.30
2019-05-12T17:09:40.950Z,40.30
2019-05-12T17:12:10.678Z,41.20
2019-05-12T17:14:49.914Z,40.20
2019-05-12T17:17:14.819Z,41.20
2019-05-12T17:19:45.022Z,42.00
2019-05-12T17:22:17.359Z,42.50
2019-05-12T17:24:45.488Z,42.30
2019-05-12T17:27:23.582Z,40.50
2019-05-12T17:29:46.550Z,42.00
2019-05-12T17:32:16.565Z,43.20
2019-05-12T17:34:47.572Z,42.50
2019-05-12T17:37:17.008Z,41.70
2019-05-12T17:39:46.324Z,41.90
2019-05-12T17:42:21.527Z,41.10
2019-05-12T17:44:46.711Z,42.90
2019-05-12T17:47:21.404Z,42.40
2019-05-12T17:49:47.090Z,40.80
2019-05-12T17:52:18.547Z,40.90
2019-05-12T17:54:47.459Z,41.00
2019-05-12T17:57:19.889Z,41.70
2019-05-12T17:59:47.848Z,42.30
2019-05-12T18:02:17.257Z,42.90
2019-05-12T18:04:49.766Z,43.20
2019-05-12T18:07:19.257Z,43.40
2019-05-12T18:09:50.657Z,44.20
2019-05-12T18:12:19.809Z,43.40
2019-05-12T18:14:52.275Z,43.60
2019-05-12T18:17:20.200Z,44.20
2019-05-12T18:19:50.382Z,45.70
2019-05-12T18:22:20.773Z,45.00
2019-05-12T18:24:51.004Z,45.10
2019-05-12T18:27:23.789Z,45.50
2019-05-12T18:29:53.804Z,46.40
2019-05-12T18:32:24.392Z,45.50
2019-05-12T18:34:54.060Z,46.10
2019-05-12T18:37:24.756Z,47.10
2019-05-12T18:39:54.133Z,47.60
2019-05-12T18:42:24.587Z,47.20
2019-05-12T18:44:54.672Z,47.70
2019-05-12T18:47:31.920Z,48.00
2019-05-12T18:49:55.141Z,48.00
2019-05-12T18:52:29.204Z,48.50
2019-05-12T18:54:57.173Z,48.10
2019-05-12T18:57:26.755Z,49.00
2019-05-12T19:00:01.480Z,48.60
2019-05-12T19:02:28.510Z,48.50
2019-05-12T19:04:58.133Z,48.60
2019-05-12T19:07:39.348Z,49.50
2019-05-12T19:09:58.519Z,50.00
2019-05-12T19:12:32.481Z,49.80
2019-05-12T19:14:59.298Z,48.80
2019-05-12T19:17:28.617Z,49.40
2019-05-12T19:19:59.893Z,49.40
2019-05-12T19:22:29.007Z,49.90
2019-05-12T19:25:00.048Z,49.90
2019-05-12T19:27:29.862Z,50.30
2019-05-12T19:29:59.219Z,50.10
2019-05-12T19:32:29.429Z,50.60
2019-05-12T19:34:58.770Z,50.90
2019-05-12T19:37:30.092Z,50.90
2019-05-12T19:40:04.028Z,50.50
2019-05-12T19:42:36.234Z,51.20
2019-05-12T19:45:19.347Z,51.40
2019-05-12T19:47:40.185Z,52.00
2019-05-12T19:50:13.185Z,52.50
2019-05-12T19:52:41.929Z,52.50
2019-05-12T19:55:14.002Z,52.80
2019-05-12T19:57:44.445Z,52.10
2019-05-12T20:00:17.244Z,52.90
2019-05-12T20:02:46.655Z,53.60
2019-05-12T20:05:17.643Z,53.90
2019-05-12T20:07:47.085Z,53.80
2019-05-12T20:10:19.954Z,53.80
2019-05-12T20:12:54.642Z,53.50
2019-05-12T20:15:23.981Z,53.80
2019-05-12T20:17:55.485Z,53.50
2019-05-12T20:20:28.858Z,54.10
2019-05-12T20:22:55.876Z,53.60
2019-05-12T20:25:25.204Z,53.50
2019-05-12T20:28:04.342Z,53.80
2019-05-12T20:30:28.180Z,54.10
2019-05-12T20:32:57.607Z,54.00
2019-05-12T20:35:26.947Z,54.90
2019-05-12T20:37:57.552Z,54.80
2019-05-12T20:40:26.958Z,55.10
2019-05-12T20:43:08.003Z,55.10
2019-05-12T20:45:33.086Z,55.50
2019-05-12T20:47:58.400Z,55.70
2019-05-12T20:50:32.562Z,56.10
2019-05-12T20:52:59.230Z,56.50
2019-05-12T20:55:30.027Z,56.10
2019-05-12T20:57:59.847Z,56.70
2019-05-12T21:00:29.188Z,57.20
2019-05-12T21:02:58.520Z,57.90
2019-05-12T21:05:27.879Z,57.80
2019-05-12T21:08:04.664Z,58.70
2019-05-12T21:10:29.830Z,60.50
2019-05-12T21:12:59.158Z,61.30
2019-05-12T21:15:37.168Z,63.10
2019-05-12T21:18:06.467Z,62.30
2019-05-12T21:20:30.616Z,62.60
2019-05-12T21:22:59.927Z,61.90
2019-05-12T21:25:29.262Z,63.30
2019-05-12T21:28:02.710Z,64.60
2019-05-12T21:30:30.208Z,67.00
2019-05-12T21:33:01.214Z,67.60
2019-05-12T21:35:32.043Z,67.60
2019-05-12T21:38:03.984Z,67.60
2019-05-12T21:40:34.939Z,67.00
2019-05-12T21:43:04.237Z,67.20
2019-05-12T21:45:33.988Z,68.50
2019-05-12T21:48:03.771Z,69.50
2019-05-12T21:50:38.209Z,69.90
2019-05-12T21:53:04.499Z,70.70
2019-05-12T21:55:34.514Z,71.20
2019-05-12T21:58:10.489Z,72.00
2019-05-12T22:00:45.320Z,72.50
2019-05-12T22:03:15.623Z,73.60
2019-05-12T22:05:51.362Z,73.80
2019-05-12T22:08:22.043Z,73.90
2019-05-12T22:10:48.731Z,74.00
2019-05-12T22:13:18.353Z,74.40
2019-05-12T22:15:51.487Z,75.30
2019-05-12T22:18:18.975Z,75.50
2019-05-12T22:20:54.396Z,76.40
2019-05-12T22:23:19.407Z,75.90
2019-05-12T22:25:55.645Z,75.70
2019-05-12T22:28:19.773Z,75.50
2019-05-12T22:30:49.084Z,75.10
2019-05-12T22:33:18.416Z,76.30
2019-05-12T22:36:00.737Z,77.10
2019-05-12T22:38:21.023Z,77.00
2019-05-12T22:40:57.752Z,78.10
2019-05-12T22:43:23.143Z,78.90
2019-05-12T22:45:54.496Z,79.40
2019-05-12T22:48:23.035Z,80.30
2019-05-12T22:50:54.810Z,80.50
2019-05-12T22:53:25.747Z,80.50
2019-05-12T22:55:54.427Z,79.90
2019-05-12T22:58:25.435Z,80.80
2019-05-12T23:01:00.864Z,80.30
2019-05-12T23:03:26.007Z,80.60
2019-05-12T23:05:59.572Z,80.50
2019-05-12T23:08:26.368Z,81.10
2019-05-12T23:10:56.232Z,80.70
2019-05-12T23:13:25.602Z,82.40
2019-05-12T23:15:54.909Z,83.60
2019-05-12T23:18:30.587Z,82.80
2019-05-12T23:20:56.908Z,83.60
2019-05-12T23:23:26.238Z,83.70
2019-05-12T23:26:00.570Z,84.50
2019-05-12T23:28:26.599Z,84.60
2019-05-12T23:30:55.926Z,84.80
2019-05-12T23:33:31.772Z,84.80
2019-05-12T23:35:56.287Z,85.10
2019-05-12T23:38:25.622Z,85.70
2019-05-12T23:40:54.931Z,85.10
2019-05-12T23:43:24.260Z,85.10
2019-05-12T23:45:53.575Z,84.70
2019-05-12T23:48:22.906Z,85.10
2019-05-12T23:50:54.224Z,85.50
2019-05-12T23:53:24.360Z,85.00
2019-05-12T23:55:54.170Z,85.50
2019-05-12T23:58:23.715Z,86.10
